Time;durP1;ratioP1;P1;durP2;ratioP2;P2;SDS_P1;SDS_P2;PMS_P1;PMS_P2;Temp;Humidity;BMP_temperature;BMP_pressure;BME280_temperature;BME280_humidity;BME280_pressure;Samples;Min_cycle;Max_cycle;Signal;HPM_P1;HPM_P2
2022/05/19 00:01:01;;;;;;;4.65;3.90;;;17.10;76.10;;;;;;2087103;28;20087;-74
2022/05/19 00:02:04;;;;;;;5.80;3.92;;;17.10;76.00;;;;;;2081176;28;20029;-74
2022/05/19 00:03:05;;;;;;;4.53;4.00;;;17.00;75.40;;;;;;2071033;28;20092;-72
2022/05/19 00:04:05;;;;;;;5.38;3.90;;;17.00;75.80;;;;;;2079048;28;20038;-72
2022/05/19 00:05:07;;;;;;;6.97;4.20;;;17.00;75.50;;;;;;2087986;28;20032;-73
2022/05/19 00:06:09;;;;;;;5.32;4.05;;;17.00;75.80;;;;;;2087450;28;20045;-72
2022/05/19 00:07:11;;;;;;;4.78;3.85;;;17.00;76.50;;;;;;2087309;28;20740;-72
2022/05/19 00:08:11;;;;;;;5.65;4.05;;;17.00;76.10;;;;;;2088023;28;20035;-72
2022/05/19 00:09:13;;;;;;;5.90;4.00;;;16.90;76.50;;;;;;2087846;28;20059;-72
2022/05/19 00:10:14;;;;;;;5.65;3.60;;;16.90;76.30;;;;;;2087920;28;20017;-73
2022/05/19 00:11:18;;;;;;;4.97;3.90;;;16.90;75.50;;;;;;2087601;28;20591;-72
2022/05/19 00:12:22;;;;;;;4.35;3.90;;;16.90;76.10;;;;;;2087965;28;20116;-72
2022/05/19 00:13:24;;;;;;;4.43;3.70;;;16.90;75.90;;;;;;2087871;28;20480;-72
2022/05/19 00:14:25;;;;;;;5.40;3.78;;;16.90;75.00;;;;;;2087749;28;20570;-72
2022/05/19 00:15:26;;;;;;;5.50;3.90;;;16.90;75.60;;;;;;2087850;28;20037;-73
2022/05/19 00:16:28;;;;;;;4.95;3.85;;;16.90;76.20;;;;;;2087799;28;20533;-72
2022/05/19 00:17:28;;;;;;;4.10;3.60;;;16.90;76.90;;;;;;2087246;28;20488;-72
2022/05/19 00:18:29;;;;;;;5.00;4.20;;;16.90;76.30;;;;;;2087226;28;20029;-72
2022/05/19 00:19:29;;;;;;;5.28;4.03;;;16.90;76.10;;;;;;2087080;28;20794;-72
2022/05/19 00:20:30;;;;;;;5.20;4.00;;;16.90;75.90;;;;;;2078646;28;20021;-72
2022/05/19 00:21:30;;;;;;;6.43;4.30;;;16.90;76.20;;;;;;2087224;28;20059;-72
2022/05/19 00:22:31;;;;;;;5.10;4.18;;;16.80;77.00;;;;;;2087897;28;20036;-72
2022/05/19 00:23:32;;;;;;;4.95;3.65;;;16.80;76.80;;;;;;2087087;28;20029;-72
2022/05/19 00:24:33;;;;;;;4.85;3.83;;;16.80;76.90;;;;;;2087181;28;20113;-72
2022/05/19 00:25:34;;;;;;;5.40;3.97;;;16.80;77.10;;;;;;2087191;28;20041;-73
2022/05/19 00:26:34;;;;;;;4.65;3.78;;;16.80;77.10;;;;;;2087915;28;20059;-74
2022/05/19 00:27:35;;;;;;;4.40;3.80;;;16.80;76.70;;;;;;2087227;28;20067;-74
2022/05/19 00:28:35;;;;;;;4.20;3.75;;;16.70;76.30;;;;;;2087094;28;20029;-74
2022/05/19 00:29:36;;;;;;;6.55;3.97;;;16.70;76.20;;;;;;2078745;28;20503;-72
2022/05/19 00:30:37;;;;;;;6.22;4.00;;;16.70;76.10;;;;;;2086829;28;20554;-72
2022/05/19 00:31:38;;;;;;;4.18;3.65;;;16.70;75.60;;;;;;2087880;28;20170;-72
2022/05/19 00:32:40;;;;;;;4.95;3.80;;;16.70;75.50;;;;;;2087805;28;20491;-73
2022/05/19 00:33:41;;;;;;;5.25;3.60;;;16.70;76.80;;;;;;2078668;28;20037;-73
2022/05/19 00:34:42;;;;;;;4.80;3.78;;;16.70;77.20;;;;;;2078875;28;20025;-73
2022/05/19 00:35:43;;;;;;;4.10;3.70;;;16.70;77.00;;;;;;2087825;28;20108;-73
2022/05/19 00:36:43;;;;;;;5.28;4.00;;;16.70;77.20;;;;;;2087222;28;20044;-73
2022/05/19 00:37:44;;;;;;;4.72;3.70;;;16.70;77.40;;;;;;2087117;28;20057;-73
2022/05/19 00:38:45;;;;;;;4.43;3.90;;;16.60;78.10;;;;;;2078585;28;20561;-73
2022/05/19 00:39:46;;;;;;;5.10;3.97;;;16.60;78.20;;;;;;2086861;28;20029;-73
2022/05/19 00:40:51;;;;;;;5.20;3.70;;;16.60;78.60;;;;;;2086685;28;20036;-73
2022/05/19 00:42:43;;;;;;;3.83;3.42;;;16.60;78.60;;;;;;2087246;28;20032;-73
2022/05/19 00:43:13;;;;;;;4.65;3.63;;;16.60;78.60;;;;;;2087593;28;20040;-73
2022/05/19 00:44:13;;;;;;;3.95;3.50;;;16.50;78.40;;;;;;2087764;28;20514;-73
2022/05/19 00:45:18;;;;;;;5.63;3.55;;;16.50;78.60;;;;;;2087796;28;20045;-73
2022/05/19 00:46:45;;;;;;;6.65;3.70;;;16.50;78.90;;;;;;2087816;28;20039;-72
2022/05/19 00:47:51;;;;;;;5.25;3.78;;;16.50;78.40;;;;;;2087701;28;20454;-73
2022/05/19 00:49:17;;;;;;;5.25;4.10;;;16.50;79.20;;;;;;2087697;28;20090;-72
2022/05/19 00:50:23;;;;;;;4.60;3.63;;;16.50;79.30;;;;;;2087534;28;20052;-72
2022/05/19 00:51:33;;;;;;;4.30;3.58;;;16.40;79.10;;;;;;2087667;28;20726;-72
2022/05/19 00:52:44;;;;;;;5.65;3.70;;;16.40;78.70;;;;;;2087799;28;20029;-73
2022/05/19 00:53:54;;;;;;;5.85;3.80;;;16.40;79.10;;;;;;2087746;28;20041;-72
2022/05/19 00:55:17;;;;;;;4.78;3.75;;;16.40;79.20;;;;;;2087634;28;20032;-73
2022/05/19 00:56:24;;;;;;;5.13;3.60;;;16.30;79.70;;;;;;2088203;28;20690;-73
2022/05/19 00:57:28;;;;;;;3.90;3.47;;;16.30;79.70;;;;;;2089374;28;20039;-73
2022/05/19 00:58:38;;;;;;;5.45;3.60;;;16.30;79.50;;;;;;2088525;28;20025;-73
2022/05/19 00:59:51;;;;;;;4.40;3.33;;;16.30;79.40;;;;;;2088790;28;20234;-73
2022/05/19 01:00:54;;;;;;;3.53;3.22;;;16.30;79.90;;;;;;2089143;28;20025;-73
2022/05/19 01:01:55;;;;;;;5.00;3.70;;;16.30;79.90;;;;;;2088713;28;20025;-73
2022/05/19 01:02:59;;;;;;;4.10;3.40;;;16.20;79.80;;;;;;2088792;28;20112;-73
2022/05/19 01:04:04;;;;;;;4.88;3.50;;;16.20;79.50;;;;;;2088581;28;20048;-73
2022/05/19 01:05:13;;;;;;;6.20;3.78;;;16.20;79.40;;;;;;2088778;28;20065;-73
2022/05/19 01:06:18;;;;;;;4.55;3.53;;;16.20;79.80;;;;;;2088704;28;20031;-73
2022/05/19 01:07:25;;;;;;;4.82;3.50;;;16.20;79.00;;;;;;2088678;28;20555;-73
2022/05/19 01:08:29;;;;;;;5.68;3.47;;;16.20;79.20;;;;;;2089028;28;20033;-73
2022/05/19 01:09:34;;;;;;;4.13;3.70;;;16.20;78.90;;;;;;2088281;28;20641;-73
2022/05/19 01:10:36;;;;;;;4.13;3.53;;;16.10;79.00;;;;;;2080646;28;20042;-73
2022/05/19 01:11:38;;;;;;;5.20;3.85;;;16.10;79.10;;;;;;2080410;28;20029;-73
2022/05/19 01:12:40;;;;;;;3.92;3.53;;;16.10;79.00;;;;;;2088491;28;20044;-73
2022/05/19 01:13:42;;;;;;;3.97;3.58;;;16.10;78.60;;;;;;2088403;28;20150;-73
2022/05/19 01:14:43;;;;;;;5.10;3.58;;;16.10;78.80;;;;;;2088482;28;20459;-73
2022/05/19 01:15:48;;;;;;;5.20;3.50;;;16.10;78.90;;;;;;2089128;28;20116;-73
2022/05/19 01:16:50;;;;;;;4.35;3.63;;;16.10;79.10;;;;;;2089288;28;20048;-72
2022/05/19 01:17:51;;;;;;;4.32;3.67;;;16.10;78.40;;;;;;2089092;28;20116;-74
2022/05/19 01:18:51;;;;;;;5.70;3.67;;;16.10;78.20;;;;;;2089255;28;20025;-74
2022/05/19 01:20:04;;;;;;;4.40;4.00;;;16.10;78.60;;;;;;2089072;28;20049;-74
2022/05/19 01:21:11;;;;;;;4.30;3.90;;;16.10;78.50;;;;;;2088788;28;20052;-74
2022/05/19 01:22:11;;;;;;;5.30;3.65;;;16.00;78.40;;;;;;2088364;28;20610;-72
2022/05/19 01:23:49;;;;;;;7.40;3.95;;;16.00;78.60;;;;;;2088322;28;20130;-72
2022/05/19 01:24:58;;;;;;;4.10;3.47;;;16.00;78.90;;;;;;2088939;28;20029;-72
2022/05/19 01:26:12;;;;;;;3.90;3.50;;;16.00;79.30;;;;;;2089082;28;20116;-72
2022/05/19 01:27:12;;;;;;;3.70;3.40;;;16.00;79.30;;;;;;2088977;28;20017;-74
2022/05/19 01:28:13;;;;;;;4.03;3.40;;;16.00;79.30;;;;;;2089060;28;20044;-73
2022/05/19 01:29:17;;;;;;;5.20;3.45;;;15.90;79.10;;;;;;2088934;28;20025;-74
2022/05/19 01:30:19;;;;;;;4.00;3.50;;;15.90;79.40;;;;;;2088939;28;20625;-73
2022/05/19 01:31:36;;;;;;;4.13;3.35;;;15.90;79.40;;;;;;2088682;28;20033;-73
2022/05/19 01:32:36;;;;;;;5.15;3.58;;;15.90;79.70;;;;;;2088921;28;20124;-72
2022/05/19 01:33:37;;;;;;;5.97;3.83;;;15.90;79.60;;;;;;2088996;28;20401;-73
2022/05/19 01:34:38;;;;;;;5.47;3.55;;;15.90;79.50;;;;;;2088975;28;20021;-73
2022/05/19 01:35:39;;;;;;;4.00;3.60;;;15.80;79.70;;;;;;2089007;28;20047;-73
2022/05/19 01:36:40;;;;;;;4.50;3.50;;;15.80;79.60;;;;;;2089148;28;20078;-74
2022/05/19 01:37:43;;;;;;;5.18;3.78;;;15.80;79.70;;;;;;2089209;28;20025;-72
2022/05/19 01:39:01;;;;;;;5.47;3.67;;;15.80;79.90;;;;;;2080184;28;20460;-73
2022/05/19 01:40:45;;;;;;;6.63;3.97;;;15.80;80.00;;;;;;2083192;28;20021;-72
2022/05/19 01:42:12;;;;;;;3.83;3.42;;;15.80;79.10;;;;;;2088831;28;20021;-74
2022/05/19 01:43:30;;;;;;;4.60;3.30;;;15.80;79.30;;;;;;2089011;28;20116;-72
2022/05/19 01:44:46;;;;;;;8.27;3.33;;;15.80;79.70;;;;;;2089082;28;20167;-73
2022/05/19 01:46:15;;;;;;;4.80;3.50;;;15.70;79.60;;;;;;2088235;28;20040;-74
2022/05/19 01:47:26;;;;;;;5.13;3.78;;;15.70;79.30;;;;;;2084108;28;20146;-73
2022/05/19 01:48:42;;;;;;;5.43;3.55;;;15.70;79.60;;;;;;2088273;28;20039;-74
2022/05/19 01:49:57;;;;;;;5.85;3.60;;;15.70;79.90;;;;;;2082080;28;20116;-73
2022/05/19 01:51:24;;;;;;;5.15;3.58;;;15.70;80.10;;;;;;2081695;28;20083;-72
2022/05/19 01:52:33;;;;;;;3.88;3.50;;;15.70;79.40;;;;;;2083083;28;20124;-74
2022/05/19 01:54:02;;;;;;;4.93;3.38;;;15.70;79.60;;;;;;2088983;28;20782;-72
2022/05/19 01:55:11;;;;;;;6.10;3.50;;;15.70;79.40;;;;;;2089066;28;20071;-73
2022/05/19 01:56:19;;;;;;;4.40;3.53;;;15.70;79.30;;;;;;2089009;28;20773;-72
2022/05/19 01:57:37;;;;;;;4.38;3.60;;;15.70;79.00;;;;;;2089026;28;20115;-72
2022/05/19 01:58:43;;;;;;;3.95;3.28;;;15.70;78.90;;;;;;2088385;28;20021;-72
2022/05/19 02:00:13;;;;;;;4.68;3.60;;;15.70;79.20;;;;;;2088370;28;20115;-72
2022/05/19 02:01:17;;;;;;;3.73;3.43;;;15.70;79.50;;;;;;2081909;28;20505;-72
2022/05/19 02:02:49;;;;;;;4.78;3.55;;;15.70;79.40;;;;;;2088872;28;20755;-73
2022/05/19 02:04:17;;;;;;;4.35;3.42;;;15.70;79.40;;;;;;2080694;28;20068;-72
2022/05/19 02:05:32;;;;;;;5.00;3.55;;;15.70;79.20;;;;;;2088030;28;20075;-73
2022/05/19 02:06:44;;;;;;;6.03;3.67;;;15.70;79.00;;;;;;2088492;28;20859;-72
2022/05/19 02:07:50;;;;;;;6.25;3.88;;;15.70;78.30;;;;;;2088996;28;20060;-72
2022/05/19 02:09:00;;;;;;;4.28;3.30;;;15.70;78.70;;;;;;2088869;28;20029;-72
2022/05/19 02:10:15;;;;;;;5.25;3.60;;;15.70;78.60;;;;;;2088719;28;20105;-72
2022/05/19 02:11:25;;;;;;;4.03;3.55;;;15.70;79.70;;;;;;2088740;28;20029;-73
2022/05/19 02:12:27;;;;;;;5.30;3.83;;;15.60;79.40;;;;;;2088190;28;20120;-72
2022/05/19 02:13:30;;;;;;;6.95;3.38;;;15.60;79.10;;;;;;2088172;28;20084;-72
2022/05/19 02:14:48;;;;;;;4.93;3.70;;;15.60;78.90;;;;;;2088675;28;20035;-72
2022/05/19 02:15:52;;;;;;;3.90;3.50;;;15.60;78.90;;;;;;2088710;28;20123;-72
2022/05/19 02:16:54;;;;;;;3.70;3.40;;;15.60;78.80;;;;;;2087890;28;20052;-73
2022/05/19 02:17:56;;;;;;;5.55;3.30;;;15.60;79.90;;;;;;2087970;28;20549;-71
2022/05/19 02:18:57;;;;;;;3.80;3.40;;;15.60;79.20;;;;;;2087931;28;20035;-72
2022/05/19 02:20:03;;;;;;;3.97;3.25;;;15.60;79.70;;;;;;2079436;28;20524;-72
2022/05/19 02:21:04;;;;;;;4.50;3.67;;;15.60;79.50;;;;;;2080063;28;20022;-72
2022/05/19 02:22:08;;;;;;;6.35;3.55;;;15.60;79.40;;;;;;2079595;28;20033;-72
2022/05/19 02:23:11;;;;;;;3.95;3.10;;;15.60;79.40;;;;;;2087988;28;20171;-73
2022/05/19 02:24:18;;;;;;;5.80;3.85;;;15.60;79.50;;;;;;2087974;28;20036;-72
2022/05/19 02:25:42;;;;;;;4.43;3.95;;;15.60;79.40;;;;;;2087943;28;20072;-72
2022/05/19 02:26:43;;;;;;;7.10;3.78;;;15.50;79.30;;;;;;2087961;28;20029;-71
2022/05/19 02:28:08;;;;;;;5.82;3.60;;;15.50;79.60;;;;;;2088099;28;20779;-73
2022/05/19 02:29:17;;;;;;;3.97;3.50;;;15.50;79.70;;;;;;2088630;28;20104;-72
2022/05/19 02:30:24;;;;;;;4.57;3.50;;;15.50;79.50;;;;;;2088752;28;20041;-72
2022/05/19 02:31:25;;;;;;;3.90;3.40;;;15.50;79.50;;;;;;2088546;28;20028;-72
2022/05/19 02:32:26;;;;;;;4.05;3.40;;;15.50;79.70;;;;;;2088304;28;20040;-72
2022/05/19 02:33:27;;;;;;;3.58;3.17;;;15.50;80.10;;;;;;2087936;28;20033;-74
2022/05/19 02:34:27;;;;;;;3.90;3.50;;;15.40;80.40;;;;;;2087950;28;20057;-71
2022/05/19 02:35:29;;;;;;;4.22;3.58;;;15.40;80.50;;;;;;2088588;28;20441;-72
2022/05/19 02:36:29;;;;;;;4.07;3.55;;;15.40;80.50;;;;;;2088551;28;20056;-72
2022/05/19 02:37:30;;;;;;;6.45;3.80;;;15.40;80.70;;;;;;2088526;28;20033;-72
2022/05/19 02:38:32;;;;;;;5.85;3.60;;;15.40;80.80;;;;;;2088571;28;20137;-73
2022/05/19 02:39:32;;;;;;;4.78;3.70;;;15.40;80.40;;;;;;2088407;28;20488;-72
2022/05/19 02:40:35;;;;;;;4.63;3.50;;;15.40;80.30;;;;;;2088132;28;20025;-73
2022/05/19 02:41:36;;;;;;;5.75;3.75;;;15.40;80.40;;;;;;2087758;28;20061;-73
2022/05/19 02:42:40;;;;;;;5.00;3.70;;;15.40;80.50;;;;;;2087777;28;20530;-72
2022/05/19 02:43:40;;;;;;;4.22;3.75;;;15.40;80.70;;;;;;2091623;28;20039;-71
2022/05/19 02:44:42;;;;;;;6.43;3.90;;;15.40;80.60;;;;;;2092063;28;20490;-71
2022/05/19 02:45:45;;;;;;;5.70;3.88;;;15.30;80.80;;;;;;2090738;28;20028;-74
2022/05/19 02:46:47;;;;;;;4.95;3.72;;;15.30;81.20;;;;;;2079562;28;20033;-72
2022/05/19 02:47:48;;;;;;;4.95;3.67;;;15.30;81.40;;;;;;2071438;28;20531;-72
2022/05/19 02:48:50;;;;;;;5.13;3.70;;;15.30;81.60;;;;;;2079826;28;20025;-72
2022/05/19 02:49:51;;;;;;;4.00;3.60;;;15.30;81.80;;;;;;2079742;28;20037;-72
2022/05/19 02:50:52;;;;;;;5.18;3.83;;;15.30;81.90;;;;;;2082628;28;20060;-73
2022/05/19 02:51:53;;;;;;;6.88;3.70;;;15.30;82.30;;;;;;2084587;28;20030;-73
2022/05/19 02:52:54;;;;;;;4.32;3.67;;;15.30;82.30;;;;;;2084773;28;20033;-74
2022/05/19 02:53:54;;;;;;;4.28;3.88;;;15.30;82.40;;;;;;2083361;28;20753;-72
2022/05/19 02:54:55;;;;;;;4.72;3.70;;;15.30;82.60;;;;;;2091946;28;20032;-72
2022/05/19 02:55:55;;;;;;;5.45;3.65;;;15.20;82.80;;;;;;2092638;28;20459;-73
2022/05/19 02:56:56;;;;;;;5.32;3.88;;;15.20;82.90;;;;;;2091766;28;20570;-76
2022/05/19 02:57:58;;;;;;;4.18;3.78;;;15.20;82.50;;;;;;2083999;28;20026;-71
2022/05/19 02:58:59;;;;;;;5.90;4.00;;;15.20;82.70;;;;;;2073809;28;20030;-73
2022/05/19 03:00:00;;;;;;;7.32;3.88;;;15.20;82.90;;;;;;2083433;28;20026;-75
2022/05/19 03:01:01;;;;;;;5.53;3.67;;;15.20;83.10;;;;;;2082517;28;20128;-75
2022/05/19 03:02:01;;;;;;;5.88;3.95;;;15.20;82.60;;;;;;2083574;28;20073;-74
2022/05/19 03:03:02;;;;;;;5.40;3.95;;;15.10;82.60;;;;;;2091939;28;20025;-73
2022/05/19 03:04:03;;;;;;;4.90;4.00;;;15.10;82.90;;;;;;2092891;28;20021;-72
2022/05/19 03:05:04;;;;;;;4.40;3.83;;;15.10;83.20;;;;;;2092831;28;20420;-75
2022/05/19 03:06:05;;;;;;;5.47;4.20;;;15.10;83.40;;;;;;2091952;28;20021;-75
2022/05/19 03:07:06;;;;;;;6.95;4.40;;;15.10;83.50;;;;;;2091592;28;20025;-73
2022/05/19 03:08:08;;;;;;;8.27;4.20;;;15.10;83.50;;;;;;2091781;28;20047;-75
2022/05/19 03:09:09;;;;;;;4.57;3.80;;;15.10;83.40;;;;;;2091903;28;20037;-74
2022/05/19 03:10:10;;;;;;;5.60;3.70;;;15.00;83.90;;;;;;2091237;28;20060;-73
2022/05/19 03:11:10;;;;;;;7.30;3.90;;;15.10;84.30;;;;;;2090283;28;20418;-73
2022/05/19 03:12:12;;;;;;;4.18;3.78;;;15.00;84.20;;;;;;2090138;28;20060;-74
2022/05/19 03:13:22;;;;;;;5.15;3.75;;;15.00;83.80;;;;;;2092159;28;20025;-75
2022/05/19 03:14:23;;;;;;;5.77;3.90;;;15.00;84.00;;;;;;2091205;28;20048;-75
2022/05/19 03:15:24;;;;;;;5.18;3.80;;;15.00;84.30;;;;;;2091376;28;20276;-73
2022/05/19 03:16:24;;;;;;;5.22;3.80;;;15.00;84.50;;;;;;2090784;28;20025;-73
2022/05/19 03:17:25;;;;;;;6.10;4.10;;;15.00;84.80;;;;;;2092037;28;20452;-73
2022/05/19 03:18:26;;;;;;;5.32;3.95;;;15.00;85.00;;;;;;2091045;28;20365;-73
2022/05/19 03:19:26;;;;;;;5.05;4.10;;;15.00;84.90;;;;;;2091185;28;20094;-74
2022/05/19 03:20:27;;;;;;;5.97;4.00;;;15.00;85.70;;;;;;2090135;28;20043;-75
2022/05/19 03:21:28;;;;;;;7.35;4.22;;;15.00;85.40;;;;;;2093199;28;20075;-74
2022/05/19 03:22:28;;;;;;;5.80;4.20;;;15.00;85.00;;;;;;2090932;28;20088;-75
2022/05/19 03:23:29;;;;;;;6.53;3.97;;;14.90;84.20;;;;;;2090739;28;20099;-75
2022/05/19 03:24:31;;;;;;;6.35;4.22;;;15.00;84.50;;;;;;2092654;28;20426;-74
2022/05/19 03:25:31;;;;;;;5.07;4.05;;;14.90;85.00;;;;;;2091469;28;20140;-74
2022/05/19 03:26:32;;;;;;;5.03;3.83;;;15.00;85.40;;;;;;2083935;28;20433;-74
2022/05/19 03:27:35;;;;;;;5.82;4.10;;;15.00;85.90;;;;;;2083712;28;20033;-75
2022/05/19 03:28:36;;;;;;;6.72;3.88;;;15.00;85.70;;;;;;2092559;28;20041;-75
2022/05/19 03:29:36;;;;;;;6.55;4.07;;;15.00;86.10;;;;;;2092126;28;20116;-73
2022/05/19 03:30:37;;;;;;;5.60;3.85;;;15.00;86.30;;;;;;2092598;28;20044;-72
2022/05/19 03:31:38;;;;;;;5.55;4.20;;;15.00;86.20;;;;;;2092962;28;20040;-74
2022/05/19 03:32:39;;;;;;;6.53;4.38;;;15.00;86.20;;;;;;2094265;28;20017;-73
2022/05/19 03:33:40;;;;;;;7.07;4.10;;;15.00;86.50;;;;;;2094266;28;20036;-74
2022/05/19 03:34:40;;;;;;;5.07;3.80;;;15.00;86.60;;;;;;2092956;28;20580;-75
2022/05/19 03:35:43;;;;;;;7.30;4.15;;;15.00;86.40;;;;;;2092490;28;20021;-75
2022/05/19 03:36:49;;;;;;;5.45;3.90;;;15.00;86.60;;;;;;2085406;28;20044;-72
2022/05/19 03:37:49;;;;;;;4.93;3.90;;;15.00;86.90;;;;;;2085874;28;20025;-74
2022/05/19 03:38:50;;;;;;;5.18;3.63;;;15.00;87.70;;;;;;2093000;28;20064;-73
2022/05/19 03:39:51;;;;;;;5.05;3.85;;;15.00;87.30;;;;;;2087517;28;20132;-73
2022/05/19 03:40:52;;;;;;;4.40;3.83;;;15.00;87.30;;;;;;2087239;28;20044;-72
2022/05/19 03:41:52;;;;;;;5.22;4.20;;;15.00;87.00;;;;;;2088090;28;20032;-73
2022/05/19 03:42:56;;;;;;;7.57;4.15;;;15.00;86.50;;;;;;2088097;28;20064;-73
2022/05/19 03:43:57;;;;;;;8.43;3.90;;;15.10;86.80;;;;;;2087702;28;20052;-72
2022/05/19 03:44:57;;;;;;;5.10;4.07;;;15.00;86.80;;;;;;2087520;28;20033;-73
2022/05/19 03:46:01;;;;;;;6.53;4.10;;;15.10;86.80;;;;;;2087749;28;20729;-73
2022/05/19 03:47:03;;;;;;;6.53;4.03;;;15.10;87.00;;;;;;2079621;28;20515;-73
2022/05/19 03:48:04;;;;;;;7.13;4.03;;;15.10;87.20;;;;;;2087607;28;20033;-74
2022/05/19 03:49:05;;;;;;;7.35;4.25;;;15.10;87.20;;;;;;2088320;28;20387;-74
2022/05/19 03:50:07;;;;;;;6.10;3.92;;;15.10;86.90;;;;;;2088069;28;20043;-74
2022/05/19 03:51:11;;;;;;;5.47;4.20;;;15.10;86.70;;;;;;2087353;28;20082;-74
2022/05/19 03:52:11;;;;;;;8.60;4.57;;;15.10;87.00;;;;;;2087791;28;20036;-71
2022/05/19 03:53:13;;;;;;;5.15;3.90;;;15.10;86.90;;;;;;2088407;28;20394;-73
2022/05/19 03:54:13;;;;;;;5.22;3.97;;;15.20;87.10;;;;;;2088296;28;20028;-73
2022/05/19 03:55:14;;;;;;;4.85;4.10;;;15.20;87.30;;;;;;2087448;28;20533;-74
2022/05/19 03:56:15;;;;;;;5.53;4.35;;;15.20;87.20;;;;;;2087495;28;20625;-74
2022/05/19 03:57:21;;;;;;;5.68;3.50;;;15.20;87.10;;;;;;2088330;28;20017;-74
2022/05/19 03:58:22;;;;;;;4.38;3.80;;;15.30;87.20;;;;;;2088025;28;20036;-74
2022/05/19 03:59:22;;;;;;;6.85;4.25;;;15.30;87.10;;;;;;2087294;28;20029;-74
2022/05/19 04:00:23;;;;;;;6.70;4.03;;;15.30;86.90;;;;;;2087446;28;20086;-74
2022/05/19 04:01:25;;;;;;;6.70;3.80;;;15.30;87.00;;;;;;2087890;28;20040;-73
2022/05/19 04:02:26;;;;;;;6.38;4.05;;;15.40;86.30;;;;;;2088094;28;20021;-74
2022/05/19 04:03:26;;;;;;;4.30;3.80;;;15.40;86.20;;;;;;2088079;28;20033;-74
2022/05/19 04:04:27;;;;;;;6.20;3.92;;;15.40;86.40;;;;;;2088215;28;20064;-74
2022/05/19 04:05:28;;;;;;;8.85;4.32;;;15.40;86.40;;;;;;2087495;28;20047;-74
2022/05/19 04:06:29;;;;;;;7.03;4.32;;;15.50;85.90;;;;;;2087354;28;20055;-74
2022/05/19 04:07:30;;;;;;;6.80;4.10;;;15.50;85.90;;;;;;2087569;28;20409;-73
2022/05/19 04:08:31;;;;;;;9.35;4.10;;;15.60;85.80;;;;;;2087407;28;20480;-74
2022/05/19 04:09:31;;;;;;;7.18;4.15;;;15.70;86.70;;;;;;2088100;28;20087;-74
2022/05/19 04:10:32;;;;;;;6.00;4.15;;;15.90;86.20;;;;;;2088246;28;20460;-73
2022/05/19 04:11:33;;;;;;;7.18;4.18;;;16.20;85.60;;;;;;2088660;28;20033;-74
2022/05/19 04:12:34;;;;;;;10.27;4.40;;;16.50;83.50;;;;;;2089398;28;20116;-73
2022/05/19 04:13:35;;;;;;;5.72;4.03;;;16.70;82.30;;;;;;2089287;28;20483;-74
2022/05/19 04:14:36;;;;;;;4.63;3.83;;;17.10;81.70;;;;;;2089404;28;20483;-74
2022/05/19 04:15:36;;;;;;;8.45;4.00;;;17.50;80.90;;;;;;2088799;28;20084;-74
2022/05/19 04:16:38;;;;;;;5.88;4.25;;;17.80;79.30;;;;;;2080399;28;20503;-74
2022/05/19 04:17:38;;;;;;;8.60;4.22;;;18.10;77.90;;;;;;2088744;28;20469;-74
2022/05/19 04:18:39;;;;;;;5.68;4.00;;;18.40;76.30;;;;;;2088236;28;20033;-74
2022/05/19 04:19:39;;;;;;;5.63;3.75;;;18.60;75.20;;;;;;2088246;28;20079;-74
2022/05/19 04:20:41;;;;;;;4.95;3.67;;;18.80;74.30;;;;;;2087955;28;20384;-74
2022/05/19 04:21:41;;;;;;;6.53;3.75;;;19.00;73.40;;;;;;2088609;28;20036;-74
2022/05/19 04:22:42;;;;;;;6.10;3.90;;;19.20;73.00;;;;;;2089170;28;20470;-73
2022/05/19 04:23:43;;;;;;;5.03;3.72;;;19.40;71.80;;;;;;2089246;28;20033;-73
2022/05/19 04:24:44;;;;;;;5.72;3.83;;;19.50;70.90;;;;;;2089000;28;20045;-74
2022/05/19 04:25:44;;;;;;;9.73;4.25;;;19.70;70.10;;;;;;2089248;28;20044;-73
2022/05/19 04:26:45;;;;;;;4.72;3.70;;;19.80;69.90;;;;;;2088925;28;20032;-72
2022/05/19 04:27:45;;;;;;;6.40;3.67;;;20.00;69.50;;;;;;2088840;28;20090;-73
2022/05/19 04:28:46;;;;;;;4.20;3.47;;;20.10;68.30;;;;;;2088748;28;20044;-73
2022/05/19 04:29:49;;;;;;;7.03;4.10;;;20.20;67.30;;;;;;2088710;28;20092;-73
2022/05/19 04:30:50;;;;;;;5.53;3.65;;;20.20;66.40;;;;;;2088194;28;20040;-73
2022/05/19 04:31:51;;;;;;;6.63;3.88;;;20.30;65.90;;;;;;2089084;28;20120;-73
2022/05/19 04:32:51;;;;;;;5.80;3.92;;;20.40;66.20;;;;;;2089207;28;20033;-73
2022/05/19 04:33:52;;;;;;;6.13;3.75;;;20.50;65.60;;;;;;2090033;28;20120;-73
2022/05/19 04:34:53;;;;;;;5.18;3.75;;;20.60;64.80;;;;;;2089789;28;20060;-73
2022/05/19 04:35:53;;;;;;;4.28;3.88;;;20.70;64.70;;;;;;2090142;28;20021;-73
2022/05/19 04:36:54;;;;;;;7.63;4.53;;;20.80;64.30;;;;;;2090123;28;20106;-74
2022/05/19 04:38:00;;;;;;;6.55;3.80;;;20.90;63.90;;;;;;2089353;28;20037;-75
2022/05/19 04:39:01;;;;;;;5.57;3.83;;;21.00;63.90;;;;;;2089718;28;20079;-73
2022/05/19 04:40:05;;;;;;;7.15;3.80;;;20.90;62.40;;;;;;2090312;28;20453;-73
2022/05/19 04:41:06;;;;;;;6.35;4.10;;;20.90;62.70;;;;;;2090004;28;20032;-73
2022/05/19 04:42:11;;;;;;;9.57;4.35;;;20.90;62.40;;;;;;2089121;28;20111;-73
2022/05/19 04:43:11;;;;;;;5.72;4.07;;;20.80;61.90;;;;;;2081503;28;20136;-72
2022/05/19 04:44:12;;;;;;;10.55;5.07;;;20.90;62.20;;;;;;2089210;28;20025;-73
2022/05/19 04:45:15;;;;;;;5.88;3.95;;;20.90;62.20;;;;;;2090073;28;20049;-74
2022/05/19 04:46:15;;;;;;;6.88;3.72;;;20.90;62.30;;;;;;2089997;28;20029;-72
2022/05/19 04:47:16;;;;;;;7.65;4.30;;;21.00;62.10;;;;;;2090227;28;20032;-72
2022/05/19 04:48:17;;;;;;;4.75;3.70;;;21.20;61.50;;;;;;2090281;28;20065;-73
2022/05/19 04:49:18;;;;;;;8.48;3.70;;;21.30;61.80;;;;;;2090640;28;20040;-73
2022/05/19 04:50:19;;;;;;;7.13;4.00;;;21.50;61.30;;;;;;2090463;28;20021;-73
2022/05/19 04:51:21;;;;;;;5.43;3.92;;;21.50;60.70;;;;;;2090259;28;20082;-73
2022/05/19 04:52:22;;;;;;;9.00;3.97;;;21.30;60.10;;;;;;2089658;28;20437;-72
2022/05/19 04:53:24;;;;;;;8.80;4.10;;;21.30;60.30;;;;;;2081429;28;20812;-72
2022/05/19 04:54:24;;;;;;;6.70;3.95;;;21.20;60.40;;;;;;2072747;28;20042;-73
2022/05/19 04:55:26;;;;;;;5.10;4.00;;;21.00;61.20;;;;;;2080619;28;20022;-72
2022/05/19 04:56:28;;;;;;;5.53;3.90;;;21.10;61.60;;;;;;2088888;28;20025;-72
2022/05/19 04:57:29;;;;;;;7.43;3.97;;;21.20;61.10;;;;;;2081065;28;20040;-74
2022/05/19 04:58:29;;;;;;;7.10;4.20;;;21.30;61.10;;;;;;2088928;28;20024;-73
2022/05/19 04:59:30;;;;;;;10.48;4.45;;;21.20;60.50;;;;;;2089060;28;20086;-73
2022/05/19 05:00:31;;;;;;;5.60;3.60;;;21.30;60.70;;;;;;2089476;28;20056;-73
2022/05/19 05:01:31;;;;;;;5.38;3.50;;;21.50;60.90;;;;;;2090033;28;20121;-73
2022/05/19 05:02:32;;;;;;;3.95;3.50;;;21.70;60.20;;;;;;2090094;28;20147;-73
2022/05/19 05:03:34;;;;;;;5.20;3.40;;;22.00;59.90;;;;;;2089366;28;20021;-73
2022/05/19 05:04:35;;;;;;;5.13;3.55;;;22.00;58.40;;;;;;2089331;28;20159;-73
2022/05/19 05:05:35;;;;;;;6.30;3.75;;;22.00;58.70;;;;;;2089396;28;20036;-72
2022/05/19 05:06:36;;;;;;;5.80;3.53;;;22.10;58.40;;;;;;2089698;28;20388;-72
2022/05/19 05:07:37;;;;;;;7.90;3.58;;;22.10;58.30;;;;;;2089529;28;20028;-71
2022/05/19 05:08:37;;;;;;;7.68;4.53;;;22.00;58.50;;;;;;2089917;28;20029;-71
2022/05/19 05:09:38;;;;;;;5.90;3.47;;;22.00;57.90;;;;;;2088733;28;20635;-72
2022/05/19 05:10:39;;;;;;;6.13;3.72;;;22.00;58.30;;;;;;2089205;28;20461;-72
2022/05/19 05:11:41;;;;;;;5.07;3.30;;;22.20;58.80;;;;;;2089943;28;20112;-73
2022/05/19 05:12:41;;;;;;;5.35;3.80;;;22.30;58.00;;;;;;2089711;28;20051;-72
2022/05/19 05:13:42;;;;;;;4.90;3.85;;;22.30;57.80;;;;;;2080874;28;20036;-72
2022/05/19 05:14:42;;;;;;;4.85;3.33;;;22.40;57.20;;;;;;2080735;28;20037;-74
2022/05/19 05:15:43;;;;;;;5.97;3.80;;;22.50;57.20;;;;;;2088934;28;20021;-72
2022/05/19 05:16:49;;;;;;;7.45;3.88;;;22.40;57.00;;;;;;2088912;28;20092;-73
2022/05/19 05:17:49;;;;;;;5.40;3.50;;;22.30;57.20;;;;;;2088840;28;20025;-71
2022/05/19 05:18:59;;;;;;;8.02;3.53;;;22.30;57.90;;;;;;2089665;28;20111;-71
2022/05/19 05:20:04;;;;;;;4.93;3.60;;;22.40;57.60;;;;;;2089646;28;20470;-72
2022/05/19 05:21:06;;;;;;;6.90;3.55;;;22.50;56.90;;;;;;2089250;28;20044;-72
2022/05/19 05:22:07;;;;;;;6.68;4.10;;;22.60;56.70;;;;;;2089496;28;20033;-74
2022/05/19 05:23:08;;;;;;;4.57;3.85;;;22.60;56.70;;;;;;2089273;28;20028;-73
2022/05/19 05:24:09;;;;;;;5.30;3.40;;;22.60;56.60;;;;;;2080963;28;20057;-72
2022/05/19 05:25:13;;;;;;;6.85;3.60;;;22.60;56.80;;;;;;2088322;28;20059;-72
2022/05/19 05:26:15;;;;;;;4.97;3.30;;;22.80;56.50;;;;;;2088242;28;20041;-72
2022/05/19 05:27:16;;;;;;;5.45;3.33;;;22.90;56.20;;;;;;2088273;28;20434;-72
2022/05/19 05:28:22;;;;;;;5.00;3.42;;;23.10;56.20;;;;;;2088344;28;20083;-74
2022/05/19 05:29:23;;;;;;;5.13;3.75;;;23.10;55.50;;;;;;2088047;28;20044;-72
2022/05/19 05:30:23;;;;;;;5.50;3.38;;;23.10;55.80;;;;;;2088269;28;20490;-74
2022/05/19 05:31:24;;;;;;;8.10;3.67;;;23.10;55.60;;;;;;2088649;28;20511;-72
2022/05/19 05:32:25;;;;;;;6.28;3.70;;;23.10;54.90;;;;;;2089030;28;20104;-73